Terminal Aerodrome Forecast
Issued by NWS

Current Version | Previous Version | Text Only | Print | Product List | Glossary Off
Versions: 1 2 3 4 5 6 7 8 9 10 11 12 13 14 15 16 17 18 19 20 21 22 23 24 25 26 27 28 29 30

000
FTUS41 KILN 231132
TAFLUK
TAF
KLUK 231132Z 2312/2412 19011KT P6SM VCSH BKN018 OVC022
     FM231300 21012G18KT 5SM SHRA BR OVC018
      TEMPO 2318/2322 3SM TSRA OVC012CB
     FM240000 25008KT P6SM OVC020
      TEMPO 2400/2402 4SM -SHRA BR OVC010
     FM240500 30004KT P6SM SCT015
     FM240700 27007KT P6SM SKC=

USA.gov is the U.S. government's official web portal to all federal, state and local government web resources and services.